To NAV CANADA Home Page Login to a new session Search on AWWS site Feedback and Comments Disclaimer Vers la page française équivalente Tips FAQ What's new on the site To the Forecasts and Observations / NOTAM section To "File a Flight Plan" website Publications and other links Update of the User's profile FIC Telephone Numbers My Weather Data Folder Route Weather Data Regional Weather Data Local Weather Data To the Forecasts and Observations / NOTAM section
Request Generated 02/28/2015 at 20:45:53 UTC . Weather information available at that time is displayed.

METAR/TAF

TORONTO/LESTER B. PEARSON INTL/ON    

METAR CYYZ 282000Z 24007KT 15SM FEW250 M05/M15 A3069 RMK CI1 SLP408=
METAR CYYZ 281900Z 23008KT 15SM FEW250 M05/M14 A3070 RMK CI1 SLP411=
METAR CYYZ 281800Z 20006KT 170V250 15SM FEW030 FEW250 M07/M15 A3073
RMK CU1CI1 CU TR SLP420=

TAF CYYZ 282038Z 2821/0124 25010KT P6SM FEW250
BECMG 2822/2824 22005KT
FM010800 VRB03KT P6SM OVC100
FM011000 VRB03KT 4SM -SN OVC050
FM011500 21005KT P6SM -SN OVC030
BECMG 0116/0118 22010KT
RMK NXT FCST BY 010000Z=
Your time UTC time
Weather data provided by Environment Canada and NAV CANADA